sensor_id;sensor_type;location;lat;lon;timestamp;temperature;humidity
15386;DHT22;7791;47.246;9.648;2024-03-23T00:55:42;8.70;99.90
15386;DHT22;7791;47.246;9.648;2024-03-23T00:58:08;8.60;99.90
15386;DHT22;7791;47.246;9.648;2024-03-23T01:00:33;8.50;99.90
15386;DHT22;7791;47.246;9.648;2024-03-23T01:02:59;8.40;99.90
15386;DHT22;7791;47.246;9.648;2024-03-23T01:05:24;8.30;99.90
15386;DHT22;7791;47.246;9.648;2024-03-23T01:07:52;8.20;99.90
15386;DHT22;7791;47.246;9.648;2024-03-23T01:10:24;8.20;99.90
15386;DHT22;7791;47.246;9.648;2024-03-23T01:12:55;8.30;99.90
15386;DHT22;7791;47.246;9.648;2024-03-23T01:15:20;8.30;99.90
15386;DHT22;7791;47.246;9.648;2024-03-23T01:17:46;8.30;99.90
15386;DHT22;7791;47.246;9.648;2024-03-23T01:20:15;8.20;99.90
15386;DHT22;7791;47.246;9.648;2024-03-23T01:22:56;8.20;99.90
15386;DHT22;7791;47.246;9.648;2024-03-23T01:25:21;8.30;99.90
15386;DHT22;7791;47.246;9.648;2024-03-23T01:27:49;8.30;99.90
15386;DHT22;7791;47.246;9.648;2024-03-23T01:30:18;8.10;99.90
15386;DHT22;7791;47.246;9.648;2024-03-23T01:32:43;8.00;99.90
15386;DHT22;7791;47.246;9.648;2024-03-23T01:35:11;8.00;99.90
15386;DHT22;7791;47.246;9.648;2024-03-23T01:37:37;8.00;99.90
15386;DHT22;7791;47.246;9.648;2024-03-23T01:40:03;7.90;99.90
15386;DHT22;7791;47.246;9.648;2024-03-23T01:42:30;7.90;99.90
15386;DHT22;7791;47.246;9.648;2024-03-23T01:44:56;8.00;99.90
15386;DHT22;7791;47.246;9.648;2024-03-23T01:47:22;8.40;99.90
15386;DHT22;7791;47.246;9.648;2024-03-23T01:49:47;8.60;99.90
15386;DHT22;7791;47.246;9.648;2024-03-23T01:52:13;8.80;99.90
15386;DHT22;7791;47.246;9.648;2024-03-23T01:54:44;8.80;99.90
15386;DHT22;7791;47.246;9.648;2024-03-23T01:57:10;8.80;99.90
15386;DHT22;7791;47.246;9.648;2024-03-23T01:59:36;8.90;99.90
15386;DHT22;7791;47.246;9.648;2024-03-23T02:02:02;8.90;99.90
15386;DHT22;7791;47.246;9.648;2024-03-23T02:04:30;8.80;99.90
15386;DHT22;7791;47.246;9.648;2024-03-23T02:09:51;8.70;99.90
15386;DHT22;7791;47.246;9.648;2024-03-23T02:12:18;8.60;99.90
15386;DHT22;7791;47.246;9.648;2024-03-23T02:14:44;8.40;99.90
15386;DHT22;7791;47.246;9.648;2024-03-23T02:17:15;8.30;99.90
15386;DHT22;7791;47.246;9.648;2024-03-23T02:19:41;8.30;99.90
15386;DHT22;7791;47.246;9.648;2024-03-23T02:22:09;8.20;99.90
15386;DHT22;7791;47.246;9.648;2024-03-23T02:24:38;8.10;99.90
15386;DHT22;7791;47.246;9.648;2024-03-23T02:27:21;8.10;99.90
15386;DHT22;7791;47.246;9.648;2024-03-23T02:30:04;8.00;99.90
15386;DHT22;7791;47.246;9.648;2024-03-23T02:32:35;8.20;99.90
15386;DHT22;7791;47.246;9.648;2024-03-23T02:38:04;8.30;99.90
15386;DHT22;7791;47.246;9.648;2024-03-23T02:40:30;8.20;99.90
15386;DHT22;7791;47.246;9.648;2024-03-23T02:42:57;8.40;99.90
15386;DHT22;7791;47.246;9.648;2024-03-23T02:45:28;8.50;99.90
15386;DHT22;7791;47.246;9.648;2024-03-23T02:47:54;8.60;99.90
15386;DHT22;7791;47.246;9.648;2024-03-23T02:50:20;8.50;99.90
15386;DHT22;7791;47.246;9.648;2024-03-23T02:52:51;8.40;99.90
15386;DHT22;7791;47.246;9.648;2024-03-23T02:55:17;8.20;99.90
15386;DHT22;7791;47.246;9.648;2024-03-23T02:57:46;8.10;99.90
15386;DHT22;7791;47.246;9.648;2024-03-23T03:00:11;7.90;99.90
15386;DHT22;7791;47.246;9.648;2024-03-23T03:02:37;7.80;99.90
15386;DHT22;7791;47.246;9.648;2024-03-23T03:05:06;7.70;99.90
15386;DHT22;7791;47.246;9.648;2024-03-23T03:07:34;7.60;99.90
15386;DHT22;7791;47.246;9.648;2024-03-23T03:10:12;7.70;99.90
15386;DHT22;7791;47.246;9.648;2024-03-23T03:12:38;7.80;99.90
15386;DHT22;7791;47.246;9.648;2024-03-23T03:15:06;7.90;99.90
15386;DHT22;7791;47.246;9.648;2024-03-23T03:17:37;7.90;99.90
15386;DHT22;7791;47.246;9.648;2024-03-23T03:20:10;7.80;99.90
15386;DHT22;7791;47.246;9.648;2024-03-23T03:22:37;7.90;99.90
15386;DHT22;7791;47.246;9.648;2024-03-23T03:25:06;8.00;99.90
15386;DHT22;7791;47.246;9.648;2024-03-23T03:27:32;8.10;99.90
15386;DHT22;7791;47.246;9.648;2024-03-23T03:30:13;8.00;99.90
15386;DHT22;7791;47.246;9.648;2024-03-23T03:32:38;8.00;99.90
15386;DHT22;7791;47.246;9.648;2024-03-23T03:35:10;8.00;99.90
15386;DHT22;7791;47.246;9.648;2024-03-23T03:37:35;8.00;99.90
15386;DHT22;7791;47.246;9.648;2024-03-23T03:40:08;7.90;99.90
15386;DHT22;7791;47.246;9.648;2024-03-23T03:42:38;7.80;99.90
15386;DHT22;7791;47.246;9.648;2024-03-23T03:45:04;7.70;99.90
15386;DHT22;7791;47.246;9.648;2024-03-23T03:47:33;7.60;99.90
15386;DHT22;7791;47.246;9.648;2024-03-23T03:50:07;7.40;99.90
15386;DHT22;7791;47.246;9.648;2024-03-23T03:52:36;7.20;99.90
15386;DHT22;7791;47.246;9.648;2024-03-23T03:55:13;7.10;99.90
15386;DHT22;7791;47.246;9.648;2024-03-23T03:57:41;7.10;99.90
15386;DHT22;7791;47.246;9.648;2024-03-23T04:00:07;7.00;99.90
15386;DHT22;7791;47.246;9.648;2024-03-23T04:02:41;6.80;99.90
15386;DHT22;7791;47.246;9.648;2024-03-23T04:05:07;6.70;99.90
15386;DHT22;7791;47.246;9.648;2024-03-23T04:07:36;6.60;99.90
15386;DHT22;7791;47.246;9.648;2024-03-23T04:10:04;6.70;99.90
15386;DHT22;7791;47.246;9.648;2024-03-23T04:12:32;6.80;99.90
15386;DHT22;7791;47.246;9.648;2024-03-23T04:15:12;6.80;99.90
15386;DHT22;7791;47.246;9.648;2024-03-23T04:17:41;6.70;99.90
15386;DHT22;7791;47.246;9.648;2024-03-23T04:20:12;6.60;99.90
15386;DHT22;7791;47.246;9.648;2024-03-23T04:22:38;6.90;99.90
15386;DHT22;7791;47.246;9.648;2024-03-23T04:25:09;7.10;99.90
15386;DHT22;7791;47.246;9.648;2024-03-23T04:27:34;7.10;99.90
15386;DHT22;7791;47.246;9.648;2024-03-23T04:30:03;7.00;99.90
15386;DHT22;7791;47.246;9.648;2024-03-23T04:32:30;6.90;99.90
15386;DHT22;7791;47.246;9.648;2024-03-23T04:34:56;6.80;99.90
15386;DHT22;7791;47.246;9.648;2024-03-23T04:37:22;6.70;99.90
15386;DHT22;7791;47.246;9.648;2024-03-23T04:39:50;6.70;99.90
15386;DHT22;7791;47.246;9.648;2024-03-23T04:42:25;6.70;99.90
15386;DHT22;7791;47.246;9.648;2024-03-23T04:44:50;6.70;99.90
15386;DHT22;7791;47.246;9.648;2024-03-23T04:47:18;6.70;99.90
15386;DHT22;7791;47.246;9.648;2024-03-23T04:49:49;6.60;99.90
15386;DHT22;7791;47.246;9.648;2024-03-23T04:52:17;6.50;99.90
15386;DHT22;7791;47.246;9.648;2024-03-23T04:54:42;6.30;99.90
15386;DHT22;7791;47.246;9.648;2024-03-23T04:57:20;6.20;99.90
15386;DHT22;7791;47.246;9.648;2024-03-23T04:59:46;6.10;99.90
15386;DHT22;7791;47.246;9.648;2024-03-23T05:02:14;6.10;99.90
15386;DHT22;7791;47.246;9.648;2024-03-23T05:04:43;6.00;99.90
15386;DHT22;7791;47.246;9.648;2024-03-23T05:07:20;5.90;99.90
15386;DHT22;7791;47.246;9.648;2024-03-23T05:09:48;6.00;99.90
15386;DHT22;7791;47.246;9.648;2024-03-23T05:12:16;6.10;99.90
15386;DHT22;7791;47.246;9.648;2024-03-23T05:14:46;6.10;99.90
15386;DHT22;7791;47.246;9.648;2024-03-23T05:17:17;6.10;99.90
15386;DHT22;7791;47.246;9.648;2024-03-23T05:19:43;6.10;99.90
15386;DHT22;7791;47.246;9.648;2024-03-23T05:22:11;6.30;99.90
15386;DHT22;7791;47.246;9.648;2024-03-23T05:24:44;6.30;99.90
15386;DHT22;7791;47.246;9.648;2024-03-23T05:27:33;6.20;99.90
15386;DHT22;7791;47.246;9.648;2024-03-23T05:30:01;6.10;99.90
15386;DHT22;7791;47.246;9.648;2024-03-23T05:32:30;6.10;99.90
15386;DHT22;7791;47.246;9.648;2024-03-23T05:35:04;6.20;99.90
15386;DHT22;7791;47.246;9.648;2024-03-23T05:37:35;6.20;99.90
15386;DHT22;7791;47.246;9.648;2024-03-23T05:40:11;6.20;99.90
15386;DHT22;7791;47.246;9.648;2024-03-23T05:42:45;6.10;99.90
15386;DHT22;7791;47.246;9.648;2024-03-23T05:45:13;6.20;99.90
15386;DHT22;7791;47.246;9.648;2024-03-23T05:47:38;6.30;99.90
15386;DHT22;7791;47.246;9.648;2024-03-23T05:50:04;6.30;99.90
15386;DHT22;7791;47.246;9.648;2024-03-23T05:52:33;6.10;99.90
15386;DHT22;7791;47.246;9.648;2024-03-23T05:55:04;6.10;99.90
15386;DHT22;7791;47.246;9.648;2024-03-23T05:57:32;6.20;99.90
15386;DHT22;7791;47.246;9.648;2024-03-23T06:00:05;6.10;99.90
15386;DHT22;7791;47.246;9.648;2024-03-23T06:02:37;6.10;99.90
15386;DHT22;7791;47.246;9.648;2024-03-23T06:05:08;5.80;99.90
15386;DHT22;7791;47.246;9.648;2024-03-23T06:07:33;5.90;99.90
15386;DHT22;7791;47.246;9.648;2024-03-23T06:10:05;6.10;99.90
15386;DHT22;7791;47.246;9.648;2024-03-23T06:12:36;6.50;99.90
15386;DHT22;7791;47.246;9.648;2024-03-23T06:15:01;6.70;99.90
15386;DHT22;7791;47.246;9.648;2024-03-23T06:17:33;7.00;99.90
15386;DHT22;7791;47.246;9.648;2024-03-23T06:19:59;7.20;99.90
15386;DHT22;7791;47.246;9.648;2024-03-23T06:22:24;7.50;99.90
15386;DHT22;7791;47.246;9.648;2024-03-23T06:25:15;7.60;99.90
15386;DHT22;7791;47.246;9.648;2024-03-23T06:28:01;7.70;99.90
15386;DHT22;7791;47.246;9.648;2024-03-23T06:30:32;7.70;99.90
15386;DHT22;7791;47.246;9.648;2024-03-23T06:32:58;7.70;99.90
15386;DHT22;7791;47.246;9.648;2024-03-23T06:35:31;7.80;99.90
15386;DHT22;7791;47.246;9.648;2024-03-23T06:37:59;8.00;99.90
15386;DHT22;7791;47.246;9.648;2024-03-23T06:40:27;8.10;99.90
15386;DHT22;7791;47.246;9.648;2024-03-23T06:42:55;8.30;99.90
15386;DHT22;7791;47.246;9.648;2024-03-23T06:45:21;8.20;99.90
15386;DHT22;7791;47.246;9.648;2024-03-23T06:47:49;8.20;99.90
15386;DHT22;7791;47.246;9.648;2024-03-23T06:50:17;8.20;99.90
15386;DHT22;7791;47.246;9.648;2024-03-23T06:52:43;8.10;99.90
15386;DHT22;7791;47.246;9.648;2024-03-23T06:58:03;8.40;99.90
15386;DHT22;7791;47.246;9.648;2024-03-23T07:00:32;8.90;99.90
15386;DHT22;7791;47.246;9.648;2024-03-23T07:02:58;9.00;99.90
15386;DHT22;7791;47.246;9.648;2024-03-23T07:05:23;9.20;99.90
15386;DHT22;7791;47.246;9.648;2024-03-23T07:07:49;9.50;99.90
15386;DHT22;7791;47.246;9.648;2024-03-23T07:12:53;10.00;99.90
15386;DHT22;7791;47.246;9.648;2024-03-23T07:15:28;10.20;99.90
15386;DHT22;7791;47.246;9.648;2024-03-23T07:17:53;10.50;99.90
15386;DHT22;7791;47.246;9.648;2024-03-23T07:20:19;11.00;99.90
15386;DHT22;7791;47.246;9.648;2024-03-23T07:22:53;11.80;99.90
15386;DHT22;7791;47.246;9.648;2024-03-23T07:25:27;12.50;99.70
15386;DHT22;7791;47.246;9.648;2024-03-23T07:27:56;13.30;98.60
15386;DHT22;7791;47.246;9.648;2024-03-23T07:30:27;13.70;97.30
15386;DHT22;7791;47.246;9.648;2024-03-23T07:32:56;13.50;97.20
15386;DHT22;7791;47.246;9.648;2024-03-23T07:35:31;13.50;98.40
15386;DHT22;7791;47.246;9.648;2024-03-23T07:37:56;13.30;99.80
15386;DHT22;7791;47.246;9.648;2024-03-23T07:40:22;13.20;99.90
15386;DHT22;7791;47.246;9.648;2024-03-23T07:42:50;13.00;99.90
15386;DHT22;7791;47.246;9.648;2024-03-23T07:45:21;12.90;99.90
15386;DHT22;7791;47.246;9.648;2024-03-23T07:47:51;12.60;99.90
15386;DHT22;7791;47.246;9.648;2024-03-23T07:50:27;12.50;99.90
15386;DHT22;7791;47.246;9.648;2024-03-23T07:53:04;12.50;99.90
15386;DHT22;7791;47.246;9.648;2024-03-23T07:55:29;12.40;99.90
15386;DHT22;7791;47.246;9.648;2024-03-23T07:58:04;12.20;99.90
15386;DHT22;7791;47.246;9.648;2024-03-23T08:00:33;11.90;99.90
15386;DHT22;7791;47.246;9.648;2024-03-23T08:03:17;11.90;99.90
15386;DHT22;7791;47.246;9.648;2024-03-23T08:05:48;11.50;99.90
15386;DHT22;7791;47.246;9.648;2024-03-23T08:08:18;11.20;99.90
15386;DHT22;7791;47.246;9.648;2024-03-23T08:10:55;10.90;99.90
15386;DHT22;7791;47.246;9.648;2024-03-23T08:13:30;10.80;99.90
15386;DHT22;7791;47.246;9.648;2024-03-23T08:16:00;10.90;99.90
15386;DHT22;7791;47.246;9.648;2024-03-23T08:18:29;10.90;99.90
15386;DHT22;7791;47.246;9.648;2024-03-23T08:21:07;10.70;99.90
15386;DHT22;7791;47.246;9.648;2024-03-23T08:23:35;10.40;99.90
15386;DHT22;7791;47.246;9.648;2024-03-23T08:26:05;10.20;99.90
15386;DHT22;7791;47.246;9.648;2024-03-23T08:28:37;10.10;99.90
15386;DHT22;7791;47.246;9.648;2024-03-23T08:31:09;10.10;99.90
15386;DHT22;7791;47.246;9.648;2024-03-23T08:33:54;10.30;99.90
15386;DHT22;7791;47.246;9.648;2024-03-23T08:36:22;10.40;99.90
15386;DHT22;7791;47.246;9.648;2024-03-23T08:38:48;10.40;99.90
15386;DHT22;7791;47.246;9.648;2024-03-23T08:41:15;10.30;99.90
15386;DHT22;7791;47.246;9.648;2024-03-23T08:43:44;10.30;99.90
15386;DHT22;7791;47.246;9.648;2024-03-23T08:46:15;10.00;99.90
15386;DHT22;7791;47.246;9.648;2024-03-23T08:48:45;10.00;99.90
15386;DHT22;7791;47.246;9.648;2024-03-23T08:51:12;9.90;99.90
15386;DHT22;7791;47.246;9.648;2024-03-23T08:53:41;9.80;99.90
15386;DHT22;7791;47.246;9.648;2024-03-23T08:56:13;9.80;99.90
15386;DHT22;7791;47.246;9.648;2024-03-23T08:58:44;9.90;99.90
15386;DHT22;7791;47.246;9.648;2024-03-23T09:01:11;9.90;99.90
15386;DHT22;7791;47.246;9.648;2024-03-23T09:03:37;10.00;99.90
15386;DHT22;7791;47.246;9.648;2024-03-23T09:06:13;10.20;99.90
15386;DHT22;7791;47.246;9.648;2024-03-23T09:08:54;10.40;99.90
15386;DHT22;7791;47.246;9.648;2024-03-23T09:11:19;10.40;99.90
15386;DHT22;7791;47.246;9.648;2024-03-23T09:13:48;10.50;99.90
15386;DHT22;7791;47.246;9.648;2024-03-23T09:16:22;10.50;99.90
15386;DHT22;7791;47.246;9.648;2024-03-23T09:18:48;10.50;99.90
15386;DHT22;7791;47.246;9.648;2024-03-23T09:21:22;10.40;99.90
15386;DHT22;7791;47.246;9.648;2024-03-23T09:23:51;10.20;99.90
15386;DHT22;7791;47.246;9.648;2024-03-23T09:26:16;10.10;99.90
15386;DHT22;7791;47.246;9.648;2024-03-23T09:28:42;9.90;99.90
15386;DHT22;7791;47.246;9.648;2024-03-23T09:31:10;9.30;99.90
15386;DHT22;7791;47.246;9.648;2024-03-23T09:33:36;8.90;99.90
15386;DHT22;7791;47.246;9.648;2024-03-23T09:36:05;8.50;99.90
15386;DHT22;7791;47.246;9.648;2024-03-23T09:38:30;8.30;99.90
15386;DHT22;7791;47.246;9.648;2024-03-23T09:40:58;8.30;99.90
15386;DHT22;7791;47.246;9.648;2024-03-23T09:43:24;8.20;99.90
15386;DHT22;7791;47.246;9.648;2024-03-23T09:46:02;8.00;99.90
15386;DHT22;7791;47.246;9.648;2024-03-23T09:48:27;7.90;99.90
15386;DHT22;7791;47.246;9.648;2024-03-23T09:50:56;7.70;99.90
15386;DHT22;7791;47.246;9.648;2024-03-23T09:53:24;7.50;99.90
15386;DHT22;7791;47.246;9.648;2024-03-23T09:56:08;7.50;99.90
15386;DHT22;7791;47.246;9.648;2024-03-23T09:58:40;7.50;99.90
15386;DHT22;7791;47.246;9.648;2024-03-23T10:01:08;7.50;99.90
15386;DHT22;7791;47.246;9.648;2024-03-23T10:03:54;7.40;99.90
15386;DHT22;7791;47.246;9.648;2024-03-23T10:06:22;7.30;99.90
15386;DHT22;7791;47.246;9.648;2024-03-23T10:08:52;7.30;99.90
15386;DHT22;7791;47.246;9.648;2024-03-23T10:11:19;7.20;99.90
15386;DHT22;7791;47.246;9.648;2024-03-23T10:13:54;7.20;99.90
15386;DHT22;7791;47.246;9.648;2024-03-23T10:16:28;7.10;99.90
15386;DHT22;7791;47.246;9.648;2024-03-23T10:19:11;7.20;99.90
15386;DHT22;7791;47.246;9.648;2024-03-23T10:21:37;7.20;99.90
15386;DHT22;7791;47.246;9.648;2024-03-23T10:24:08;7.10;99.90
15386;DHT22;7791;47.246;9.648;2024-03-23T10:26:33;7.10;99.90
15386;DHT22;7791;47.246;9.648;2024-03-23T10:29:05;7.10;99.90
15386;DHT22;7791;47.246;9.648;2024-03-23T10:31:31;7.10;99.90
15386;DHT22;7791;47.246;9.648;2024-03-23T10:33:57;7.10;99.90
15386;DHT22;7791;47.246;9.648;2024-03-23T10:36:26;7.20;99.90
15386;DHT22;7791;47.246;9.648;2024-03-23T10:38:58;7.30;99.90
15386;DHT22;7791;47.246;9.648;2024-03-23T10:41:41;7.30;99.90
15386;DHT22;7791;47.246;9.648;2024-03-23T10:44:06;7.20;99.90
15386;DHT22;7791;47.246;9.648;2024-03-23T10:46:32;7.20;99.90
15386;DHT22;7791;47.246;9.648;2024-03-23T10:49:06;7.20;99.90
15386;DHT22;7791;47.246;9.648;2024-03-23T10:51:37;7.20;99.90
15386;DHT22;7791;47.246;9.648;2024-03-23T10:54:04;7.30;99.90
15386;DHT22;7791;47.246;9.648;2024-03-23T10:56:32;7.40;99.90
15386;DHT22;7791;47.246;9.648;2024-03-23T10:59:10;7.50;99.90
15386;DHT22;7791;47.246;9.648;2024-03-23T11:04:46;7.40;99.90
15386;DHT22;7791;47.246;9.648;2024-03-23T11:09:53;7.30;99.90
15386;DHT22;7791;47.246;9.648;2024-03-23T11:12:25;7.20;99.90
15386;DHT22;7791;47.246;9.648;2024-03-23T11:15:04;7.20;99.90
15386;DHT22;7791;47.246;9.648;2024-03-23T11:17:36;7.30;99.90
15386;DHT22;7791;47.246;9.648;2024-03-23T11:20:11;7.50;99.90
15386;DHT22;7791;47.246;9.648;2024-03-23T11:23:08;7.30;99.90
15386;DHT22;7791;47.246;9.648;2024-03-23T11:25:52;7.40;99.90
15386;DHT22;7791;47.246;9.648;2024-03-23T11:28:43;7.30;99.90
15386;DHT22;7791;47.246;9.648;2024-03-23T11:31:14;7.30;99.90
15386;DHT22;7791;47.246;9.648;2024-03-23T11:33:42;7.30;99.90
15386;DHT22;7791;47.246;9.648;2024-03-23T11:36:21;7.30;99.90
15386;DHT22;7791;47.246;9.648;2024-03-23T11:41:57;7.40;99.90
15386;DHT22;7791;47.246;9.648;2024-03-23T11:44:25;7.50;99.90
15386;DHT22;7791;47.246;9.648;2024-03-23T11:47:10;7.40;99.90
15386;DHT22;7791;47.246;9.648;2024-03-23T11:49:35;7.50;99.90
15386;DHT22;7791;47.246;9.648;2024-03-23T11:55:19;7.20;99.90
15386;DHT22;7791;47.246;9.648;2024-03-23T11:58:03;6.80;99.90
15386;DHT22;7791;47.246;9.648;2024-03-23T12:00:40;6.80;99.90
15386;DHT22;7791;47.246;9.648;2024-03-23T12:03:06;6.80;99.90
15386;DHT22;7791;47.246;9.648;2024-03-23T12:05:32;6.90;99.90
15386;DHT22;7791;47.246;9.648;2024-03-23T12:08:29;7.00;99.90
15386;DHT22;7791;47.246;9.648;2024-03-23T12:13:38;7.10;99.90
15386;DHT22;7791;47.246;9.648;2024-03-23T12:16:36;7.20;99.90
15386;DHT22;7791;47.246;9.648;2024-03-23T12:19:08;7.30;99.90
15386;DHT22;7791;47.246;9.648;2024-03-23T12:21:33;7.50;99.90
15386;DHT22;7791;47.246;9.648;2024-03-23T12:24:05;7.60;99.90
15386;DHT22;7791;47.246;9.648;2024-03-23T12:26:31;7.70;99.90
15386;DHT22;7791;47.246;9.648;2024-03-23T12:28:56;7.70;99.90
15386;DHT22;7791;47.246;9.648;2024-03-23T12:31:25;7.60;99.90
15386;DHT22;7791;47.246;9.648;2024-03-23T12:33:53;7.70;99.90
15386;DHT22;7791;47.246;9.648;2024-03-23T12:36:29;7.60;99.90
15386;DHT22;7791;47.246;9.648;2024-03-23T12:38:54;7.50;99.90
15386;DHT22;7791;47.246;9.648;2024-03-23T12:41:38;7.20;99.90
15386;DHT22;7791;47.246;9.648;2024-03-23T12:44:06;7.10;99.90
15386;DHT22;7791;47.246;9.648;2024-03-23T12:46:34;7.10;99.90
15386;DHT22;7791;47.246;9.648;2024-03-23T12:49:05;7.20;99.90
15386;DHT22;7791;47.246;9.648;2024-03-23T12:51:34;7.40;99.90
15386;DHT22;7791;47.246;9.648;2024-03-23T12:54:01;7.60;99.90
15386;DHT22;7791;47.246;9.648;2024-03-23T12:56:27;7.60;99.90
15386;DHT22;7791;47.246;9.648;2024-03-23T13:01:50;7.80;99.90
15386;DHT22;7791;47.246;9.648;2024-03-23T13:04:15;7.80;99.90
15386;DHT22;7791;47.246;9.648;2024-03-23T13:06:44;7.90;99.90
15386;DHT22;7791;47.246;9.648;2024-03-23T13:09:15;8.00;99.90
15386;DHT22;7791;47.246;9.648;2024-03-23T13:11:43;8.20;99.90
15386;DHT22;7791;47.246;9.648;2024-03-23T13:14:12;8.00;99.90
15386;DHT22;7791;47.246;9.648;2024-03-23T13:16:42;7.90;99.90
15386;DHT22;7791;47.246;9.648;2024-03-23T13:19:08;8.10;99.90
15386;DHT22;7791;47.246;9.648;2024-03-23T13:21:36;8.30;99.90
15386;DHT22;7791;47.246;9.648;2024-03-23T13:24:06;8.40;99.90
15386;DHT22;7791;47.246;9.648;2024-03-23T13:26:32;8.30;99.90
15386;DHT22;7791;47.246;9.648;2024-03-23T13:29:14;8.30;99.90
15386;DHT22;7791;47.246;9.648;2024-03-23T13:34:31;8.00;99.90
15386;DHT22;7791;47.246;9.648;2024-03-23T13:37:02;8.20;99.90
15386;DHT22;7791;47.246;9.648;2024-03-23T13:39:33;8.50;99.90
15386;DHT22;7791;47.246;9.648;2024-03-23T13:42:12;8.80;99.90
15386;DHT22;7791;47.246;9.648;2024-03-23T13:44:41;9.20;99.90
15386;DHT22;7791;47.246;9.648;2024-03-23T13:47:09;9.70;99.90
15386;DHT22;7791;47.246;9.648;2024-03-23T13:49:41;10.00;99.90
15386;DHT22;7791;47.246;9.648;2024-03-23T13:52:15;10.30;99.90
15386;DHT22;7791;47.246;9.648;2024-03-23T13:54:41;10.20;99.90
15386;DHT22;7791;47.246;9.648;2024-03-23T13:57:09;9.80;99.90
15386;DHT22;7791;47.246;9.648;2024-03-23T13:59:53;9.70;99.90
15386;DHT22;7791;47.246;9.648;2024-03-23T14:02:22;9.80;99.90
15386;DHT22;7791;47.246;9.648;2024-03-23T14:04:54;10.50;99.90
15386;DHT22;7791;47.246;9.648;2024-03-23T14:07:22;10.30;99.90
15386;DHT22;7791;47.246;9.648;2024-03-23T14:09:55;10.20;99.90
15386;DHT22;7791;47.246;9.648;2024-03-23T14:12:21;10.20;99.90
15386;DHT22;7791;47.246;9.648;2024-03-23T14:14:49;10.40;99.90
15386;DHT22;7791;47.246;9.648;2024-03-23T14:17:27;10.70;99.90
15386;DHT22;7791;47.246;9.648;2024-03-23T14:19:52;11.20;99.90
15386;DHT22;7791;47.246;9.648;2024-03-23T14:22:27;11.80;99.90
15386;DHT22;7791;47.246;9.648;2024-03-23T14:24:55;12.00;99.90
15386;DHT22;7791;47.246;9.648;2024-03-23T14:27:23;12.00;99.90
15386;DHT22;7791;47.246;9.648;2024-03-23T14:29:58;12.00;99.90
15386;DHT22;7791;47.246;9.648;2024-03-23T14:32:23;11.80;99.90
15386;DHT22;7791;47.246;9.648;2024-03-23T14:34:49;11.20;99.90
15386;DHT22;7791;47.246;9.648;2024-03-23T14:37:17;10.40;99.90
15386;DHT22;7791;47.246;9.648;2024-03-23T14:39:51;10.10;99.90
15386;DHT22;7791;47.246;9.648;2024-03-23T14:42:20;10.00;99.90
15386;DHT22;7791;47.246;9.648;2024-03-23T14:44:47;10.30;99.90
15386;DHT22;7791;47.246;9.648;2024-03-23T14:47:18;10.50;99.90
15386;DHT22;7791;47.246;9.648;2024-03-23T14:49:52;10.60;99.90
15386;DHT22;7791;47.246;9.648;2024-03-23T14:52:23;10.80;99.90
15386;DHT22;7791;47.246;9.648;2024-03-23T14:54:52;10.90;99.90
15386;DHT22;7791;47.246;9.648;2024-03-23T14:57:17;10.80;99.90
15386;DHT22;7791;47.246;9.648;2024-03-23T14:59:45;11.00;99.90
15386;DHT22;7791;47.246;9.648;2024-03-23T15:02:11;10.90;99.90
15386;DHT22;7791;47.246;9.648;2024-03-23T15:04:44;10.90;99.90
15386;DHT22;7791;47.246;9.648;2024-03-23T15:07:13;10.90;99.90
15386;DHT22;7791;47.246;9.648;2024-03-23T15:09:38;11.30;99.90
15386;DHT22;7791;47.246;9.648;2024-03-23T15:12:04;12.00;99.90
15386;DHT22;7791;47.246;9.648;2024-03-23T15:14:33;12.60;99.90
15386;DHT22;7791;47.246;9.648;2024-03-23T15:17:01;12.60;99.90
15386;DHT22;7791;47.246;9.648;2024-03-23T15:19:26;12.50;99.90
15386;DHT22;7791;47.246;9.648;2024-03-23T15:21:52;12.30;99.90
15386;DHT22;7791;47.246;9.648;2024-03-23T15:24:21;11.90;99.90
15386;DHT22;7791;47.246;9.648;2024-03-23T15:26:52;11.70;99.90
15386;DHT22;7791;47.246;9.648;2024-03-23T15:29:25;11.70;99.90
15386;DHT22;7791;47.246;9.648;2024-03-23T15:31:53;11.70;99.90
15386;DHT22;7791;47.246;9.648;2024-03-23T15:34:29;12.10;99.90
15386;DHT22;7791;47.246;9.648;2024-03-23T15:37:00;12.70;99.90
15386;DHT22;7791;47.246;9.648;2024-03-23T15:40:03;12.40;99.90
15386;DHT22;7791;47.246;9.648;2024-03-23T15:42:37;12.10;99.90
15386;DHT22;7791;47.246;9.648;2024-03-23T15:45:06;11.60;99.90
15386;DHT22;7791;47.246;9.648;2024-03-23T15:47:34;11.60;99.90
15386;DHT22;7791;47.246;9.648;2024-03-23T15:50:20;11.70;99.90
15386;DHT22;7791;47.246;9.648;2024-03-23T15:52:45;11.50;98.30
15386;DHT22;7791;47.246;9.648;2024-03-23T15:55:11;11.50;99.40
15386;DHT22;7791;47.246;9.648;2024-03-23T15:57:40;11.30;96.80
15386;DHT22;7791;47.246;9.648;2024-03-23T16:00:14;11.30;95.70
15386;DHT22;7791;47.246;9.648;2024-03-23T16:02:42;11.30;96.10
15386;DHT22;7791;47.246;9.648;2024-03-23T16:05:16;11.50;96.40
15386;DHT22;7791;47.246;9.648;2024-03-23T16:07:47;11.50;94.40
15386;DHT22;7791;47.246;9.648;2024-03-23T16:10:15;11.60;96.30
15386;DHT22;7791;47.246;9.648;2024-03-23T16:12:43;11.60;95.40
15386;DHT22;7791;47.246;9.648;2024-03-23T16:15:08;11.60;93.70
15386;DHT22;7791;47.246;9.648;2024-03-23T16:17:40;11.50;93.50
15386;DHT22;7791;47.246;9.648;2024-03-23T16:20:09;11.40;94.60
15386;DHT22;7791;47.246;9.648;2024-03-23T16:22:48;11.40;94.60
15386;DHT22;7791;47.246;9.648;2024-03-23T16:25:19;11.30;93.80
15386;DHT22;7791;47.246;9.648;2024-03-23T16:27:44;11.40;94.10
15386;DHT22;7791;47.246;9.648;2024-03-23T16:30:13;11.40;93.10
15386;DHT22;7791;47.246;9.648;2024-03-23T16:32:44;11.30;92.90
15386;DHT22;7791;47.246;9.648;2024-03-23T16:35:13;11.20;92.50
15386;DHT22;7791;47.246;9.648;2024-03-23T16:37:39;11.00;92.50
15386;DHT22;7791;47.246;9.648;2024-03-23T16:40:05;10.70;93.00
15386;DHT22;7791;47.246;9.648;2024-03-23T16:42:37;10.50;93.00
15386;DHT22;7791;47.246;9.648;2024-03-23T16:45:09;10.60;93.00
15386;DHT22;7791;47.246;9.648;2024-03-23T16:47:49;10.50;92.90
15386;DHT22;7791;47.246;9.648;2024-03-23T16:50:20;10.50;93.80
15386;DHT22;7791;47.246;9.648;2024-03-23T16:52:45;10.30;93.40
15386;DHT22;7791;47.246;9.648;2024-03-23T16:55:26;10.20;93.20
15386;DHT22;7791;47.246;9.648;2024-03-23T16:57:54;10.10;94.10
15386;DHT22;7791;47.246;9.648;2024-03-23T17:00:19;10.00;93.20
15386;DHT22;7791;47.246;9.648;2024-03-23T17:02:50;9.90;94.00
15386;DHT22;7791;47.246;9.648;2024-03-23T17:05:46;9.80;94.40
15386;DHT22;7791;47.246;9.648;2024-03-23T17:08:19;9.40;96.70
15386;DHT22;7791;47.246;9.648;2024-03-23T17:10:48;9.10;97.70
15386;DHT22;7791;47.246;9.648;2024-03-23T17:13:16;9.00;98.90
15386;DHT22;7791;47.246;9.648;2024-03-23T17:15:45;8.70;99.90
15386;DHT22;7791;47.246;9.648;2024-03-23T17:18:16;8.20;99.90
15386;DHT22;7791;47.246;9.648;2024-03-23T17:20:41;8.00;99.90
15386;DHT22;7791;47.246;9.648;2024-03-23T17:23:10;7.90;99.90
15386;DHT22;7791;47.246;9.648;2024-03-23T17:25:42;7.80;99.90
15386;DHT22;7791;47.246;9.648;2024-03-23T17:28:16;7.80;99.90
15386;DHT22;7791;47.246;9.648;2024-03-23T17:30:44;7.90;99.90
15386;DHT22;7791;47.246;9.648;2024-03-23T17:33:21;7.90;99.90
15386;DHT22;7791;47.246;9.648;2024-03-23T17:35:47;7.80;99.90
15386;DHT22;7791;47.246;9.648;2024-03-23T17:40:58;8.00;99.90
15386;DHT22;7791;47.246;9.648;2024-03-23T17:43:24;8.10;99.90
15386;DHT22;7791;47.246;9.648;2024-03-23T17:45:52;8.10;99.90